createdAt,value
2022-10-13T00:00:49.855Z,99327.03
2022-10-13T00:03:17.292Z,99322.88
2022-10-13T00:05:48.214Z,99334.19
2022-10-13T00:08:19.936Z,99324.91
2022-10-13T00:10:49.583Z,99325.22
2022-10-13T00:13:19.879Z,99327.75
2022-10-13T00:15:48.022Z,99327.94
2022-10-13T00:18:15.839Z,99320.28
2022-10-13T00:20:48.633Z,99320.69
2022-10-13T00:23:16.675Z,99321.19
2022-10-13T00:25:46.553Z,99321.75
2022-10-13T00:28:16.740Z,99322.53
2022-10-13T00:30:43.503Z,99321.06
2022-10-13T00:33:11.771Z,99321.63
2022-10-13T00:35:48.109Z,99318.25
2022-10-13T00:38:17.648Z,99324.00
2022-10-13T00:40:55.843Z,99326.72
2022-10-13T00:43:47.108Z,99318.69
2022-10-13T00:46:14.939Z,99316.69
2022-10-13T00:48:43.219Z,99328.13
2022-10-13T00:51:12.888Z,99326.59
2022-10-13T00:53:40.319Z,99315.03
2022-10-13T00:56:10.256Z,99317.47
2022-10-13T00:58:39.051Z,99306.75
2022-10-13T01:01:07.353Z,99313.53
2022-10-13T01:03:34.672Z,99306.09
2022-10-13T01:06:04.883Z,99309.69
2022-10-13T01:08:31.908Z,99316.22
2022-10-13T01:11:08.803Z,99304.94
2022-10-13T01:14:18.360Z,99312.56
2022-10-13T01:16:53.524Z,99303.94
2022-10-13T01:19:45.503Z,99309.34
2022-10-13T01:22:53.524Z,99312.06
2022-10-13T01:25:57.384Z,99307.41
2022-10-13T01:29:14.547Z,99309.88
2022-10-13T01:31:51.316Z,99312.31
2022-10-13T01:34:44.464Z,99300.28
2022-10-13T01:37:33.851Z,99307.91
2022-10-13T01:40:13.919Z,99307.06
2022-10-13T01:42:58.162Z,99306.84
2022-10-13T01:45:37.346Z,99311.72
2022-10-13T01:48:05.939Z,99298.66
2022-10-13T01:50:34.702Z,99298.09
2022-10-13T01:53:04.959Z,99290.19
2022-10-13T01:55:31.991Z,99283.78
2022-10-13T01:57:58.563Z,99286.75
2022-10-13T02:00:26.084Z,99286.97
2022-10-13T02:03:40.080Z,99277.81
2022-10-13T02:06:34.062Z,99277.22
2022-10-13T02:09:28.439Z,99278.16
2022-10-13T02:12:24.891Z,99280.69
2022-10-13T02:14:59.051Z,99275.75
2022-10-13T02:17:28.058Z,99273.63
2022-10-13T02:19:56.420Z,99277.97
2022-10-13T02:22:30.401Z,99266.47
2022-10-13T02:24:57.082Z,99265.38
2022-10-13T02:27:23.914Z,99263.03
2022-10-13T02:29:56.734Z,99258.16
2022-10-13T02:32:24.024Z,99262.63
2022-10-13T02:34:51.255Z,99249.53
2022-10-13T02:37:18.067Z,99247.63
2022-10-13T02:39:44.679Z,99251.00
2022-10-13T02:42:11.431Z,99245.22
2022-10-13T02:44:39.215Z,99251.31
2022-10-13T02:47:06.019Z,99246.22
2022-10-13T02:49:32.574Z,99247.41
2022-10-13T02:51:59.141Z,99242.53
2022-10-13T02:54:27.175Z,99237.84
2022-10-13T02:56:53.743Z,99239.03
2022-10-13T02:59:20.363Z,99232.81
2022-10-13T03:01:46.903Z,99239.91
2022-10-13T03:04:13.488Z,99236.66
2022-10-13T03:06:40.099Z,99237.38
2022-10-13T03:09:06.787Z,99243.78
2022-10-13T03:11:34.398Z,99248.03
2022-10-13T03:14:00.925Z,99240.50
2022-10-13T03:16:27.497Z,99240.19
2022-10-13T03:18:54.072Z,99235.56
2022-10-13T03:21:20.837Z,99237.63
2022-10-13T03:23:47.434Z,99235.75
2022-10-13T03:26:15.403Z,99236.38
2022-10-13T03:28:42.255Z,99234.34
2022-10-13T03:31:11.099Z,99232.78
2022-10-13T03:33:37.655Z,99224.16
2022-10-13T03:36:07.311Z,99227.19
2022-10-13T03:38:35.588Z,99234.34
2022-10-13T03:41:11.699Z,99233.75
2022-10-13T03:43:39.188Z,99228.50
2022-10-13T03:46:07.679Z,99231.47
2022-10-13T03:48:35.868Z,99232.53
2022-10-13T03:51:11.256Z,99240.00
2022-10-13T03:53:38.024Z,99243.53
2022-10-13T03:56:06.442Z,99243.59
2022-10-13T03:58:34.029Z,99237.97
2022-10-13T04:01:05.222Z,99241.09
2022-10-13T04:03:34.383Z,99241.47
2022-10-13T04:06:03.019Z,99230.63
2022-10-13T04:08:32.083Z,99241.97
2022-10-13T04:11:02.768Z,99235.56
2022-10-13T04:13:29.369Z,99237.16
2022-10-13T04:15:55.947Z,99236.06
2022-10-13T04:18:22.511Z,99238.38
2022-10-13T04:20:49.139Z,99242.34
2022-10-13T04:23:15.845Z,99235.78
2022-10-13T04:25:44.971Z,99241.81
2022-10-13T04:28:12.715Z,99244.75
2022-10-13T04:30:39.611Z,99239.47
2022-10-13T04:33:06.360Z,99248.56
2022-10-13T04:35:33.063Z,99239.09
2022-10-13T04:37:59.691Z,99242.41
2022-10-13T04:40:27.304Z,99239.78
2022-10-13T04:42:53.942Z,99240.13
2022-10-13T04:45:20.556Z,99237.78
2022-10-13T04:47:47.441Z,99249.75
2022-10-13T04:50:14.135Z,99241.09
2022-10-13T04:52:40.700Z,99236.28
2022-10-13T04:55:10.111Z,99233.25
2022-10-13T04:57:37.001Z,99239.28
2022-10-13T05:00:07.116Z,99236.59
2022-10-13T05:02:36.037Z,99238.78
2022-10-13T05:05:03.475Z,99231.53
2022-10-13T05:07:31.716Z,99230.31
2022-10-13T05:09:58.296Z,99237.66
2022-10-13T05:12:24.972Z,99223.66
2022-10-13T05:14:51.556Z,99224.19
2022-10-13T05:17:18.101Z,99218.66
2022-10-13T05:19:44.668Z,99220.69
2022-10-13T05:22:11.283Z,99216.50
2022-10-13T05:24:38.417Z,99215.53
2022-10-13T05:27:13.175Z,99209.84
2022-10-13T05:29:40.929Z,99208.00
2022-10-13T05:32:08.378Z,99211.84
2022-10-13T05:34:35.021Z,99210.66
2022-10-13T05:37:01.834Z,99206.22
2022-10-13T05:39:30.843Z,99212.72
2022-10-13T05:41:57.653Z,99201.50
2022-10-13T05:44:24.545Z,99207.91
2022-10-13T05:46:51.162Z,99200.06
2022-10-13T05:49:20.062Z,99197.53
2022-10-13T05:51:51.212Z,99190.50
2022-10-13T05:54:24.551Z,99200.06
2022-10-13T05:56:59.907Z,99194.13
2022-10-13T05:59:30.601Z,99201.44
2022-10-13T06:01:57.498Z,99196.88
2022-10-13T06:04:43.035Z,99204.16
2022-10-13T06:07:10.131Z,99206.44
2022-10-13T06:09:40.808Z,99212.34
2022-10-13T06:12:08.992Z,99208.38
2022-10-13T06:14:36.303Z,99203.16
2022-10-13T06:17:03.284Z,99200.75
2022-10-13T06:19:29.887Z,99196.81
2022-10-13T06:21:59.947Z,99195.31
2022-10-13T06:24:29.248Z,99191.06
2022-10-13T06:26:55.804Z,99192.69
2022-10-13T06:29:22.444Z,99192.50
2022-10-13T06:31:49.050Z,99188.59
2022-10-13T06:34:15.693Z,99204.00
2022-10-13T06:36:42.277Z,99199.59
2022-10-13T06:39:09.190Z,99206.44
2022-10-13T06:41:37.298Z,99200.25
2022-10-13T06:44:04.233Z,99198.28
2022-10-13T06:46:30.986Z,99205.28
2022-10-13T06:48:57.717Z,99211.31
2022-10-13T06:51:24.386Z,99215.03
2022-10-13T06:53:50.992Z,99204.13
2022-10-13T06:56:17.685Z,99212.84
2022-10-13T06:58:44.264Z,99207.41
2022-10-13T07:01:13.301Z,99212.50
2022-10-13T07:03:39.857Z,99212.09
2022-10-13T07:06:07.789Z,99204.56
2022-10-13T07:08:34.988Z,99202.31
2022-10-13T07:11:15.969Z,99197.06
2022-10-13T07:13:46.405Z,99196.00
2022-10-13T07:16:14.256Z,99194.88
2022-10-13T07:18:40.837Z,99206.53
2022-10-13T07:21:07.541Z,99211.13
2022-10-13T07:23:34.193Z,99214.34
2022-10-13T07:26:01.649Z,99200.00
2022-10-13T07:28:28.832Z,99201.69
2022-10-13T07:30:55.539Z,99192.56
2022-10-13T07:33:22.488Z,99195.59
2022-10-13T07:35:49.086Z,99196.41
2022-10-13T07:38:15.684Z,99189.09
2022-10-13T07:40:42.436Z,99195.19
2022-10-13T07:43:09.018Z,99185.81
2022-10-13T07:45:35.764Z,99188.66
2022-10-13T07:48:02.394Z,99197.25
2022-10-13T07:50:29.891Z,99189.75
2022-10-13T07:52:56.543Z,99185.34
2022-10-13T07:55:23.258Z,99196.94
2022-10-13T07:57:49.826Z,99187.41
2022-10-13T08:00:16.766Z,99194.09
2022-10-13T08:02:43.383Z,99193.31
2022-10-13T08:05:10.050Z,99195.06
2022-10-13T08:07:39.092Z,99198.47
2022-10-13T08:10:06.558Z,99198.41
2022-10-13T08:12:36.159Z,99194.22
2022-10-13T08:15:06.336Z,99194.03
2022-10-13T08:17:33.588Z,99190.19
2022-10-13T08:20:00.243Z,99189.69
2022-10-13T08:22:28.361Z,99189.28
2022-10-13T08:24:55.887Z,99187.78
2022-10-13T08:27:37.077Z,99195.09
2022-10-13T08:30:12.024Z,99188.31
2022-10-13T08:32:38.654Z,99182.94
2022-10-13T08:35:05.926Z,99177.81
2022-10-13T08:37:32.511Z,99190.28
2022-10-13T08:39:59.071Z,99185.09
2022-10-13T08:42:25.688Z,99177.63
2022-10-13T08:45:22.126Z,99179.47
2022-10-13T08:47:53.064Z,99176.47
2022-10-13T08:50:24.220Z,99180.38
2022-10-13T08:52:58.049Z,99178.34
2022-10-13T08:55:33.499Z,99180.50
2022-10-13T08:58:02.729Z,99179.09
2022-10-13T09:00:30.099Z,99174.47
2022-10-13T09:03:20.227Z,99186.97
2022-10-13T09:06:11.576Z,99181.78
2022-10-13T09:08:45.563Z,99180.22
2022-10-13T09:11:13.293Z,99189.03
2022-10-13T09:13:40.752Z,99180.97
2022-10-13T09:16:08.088Z,99185.88
2022-10-13T09:18:35.192Z,99186.06
2022-10-13T09:21:23.541Z,99191.34
2022-10-13T09:23:53.862Z,99189.09
2022-10-13T09:26:24.336Z,99186.84
2022-10-13T09:28:52.841Z,99181.09
2022-10-13T09:31:23.772Z,99180.38
2022-10-13T09:34:13.848Z,99176.56
2022-10-13T09:36:59.589Z,99174.88
2022-10-13T09:39:26.648Z,99183.34
2022-10-13T09:42:17.890Z,99171.53
2022-10-13T09:44:45.508Z,99172.88
2022-10-13T09:47:21.605Z,99178.81
2022-10-13T09:50:06.464Z,99185.50
2022-10-13T09:52:34.776Z,99190.84
2022-10-13T09:55:01.594Z,99174.66
2022-10-13T09:57:41.361Z,99179.84
2022-10-13T10:00:24.155Z,99178.66
2022-10-13T10:03:18.345Z,99182.53
2022-10-13T10:05:55.246Z,99173.00
2022-10-13T10:09:08.633Z,99169.38
2022-10-13T10:11:45.251Z,99168.69
2022-10-13T10:14:25.056Z,99169.75
2022-10-13T10:17:16.526Z,99169.53
2022-10-13T10:20:13.118Z,99169.84
2022-10-13T10:23:29.194Z,99156.94
2022-10-13T10:26:03.826Z,99144.53
2022-10-13T10:29:00.896Z,99139.59
2022-10-13T10:31:52.278Z,99136.44
2022-10-13T10:34:35.070Z,99129.25
2022-10-13T10:37:26.269Z,99122.59
2022-10-13T10:40:35.809Z,99113.34
2022-10-13T10:43:48.394Z,99126.66
2022-10-13T10:46:29.285Z,99115.41
2022-10-13T10:49:02.889Z,99109.38
2022-10-13T10:51:36.659Z,99116.53
2022-10-13T10:54:49.051Z,99125.19
2022-10-13T10:57:40.178Z,99111.44
2022-10-13T11:00:19.207Z,99104.34
2022-10-13T11:03:17.174Z,99098.69
2022-10-13T11:06:05.798Z,99097.66
2022-10-13T11:08:38.474Z,99106.50
2022-10-13T11:11:24.917Z,99103.31
2022-10-13T11:14:05.066Z,99098.44
2022-10-13T11:17:03.682Z,99099.59
2022-10-13T11:19:35.052Z,99093.22
2022-10-13T11:22:01.607Z,99087.75
2022-10-13T11:24:34.379Z,99087.47
2022-10-13T11:27:15.999Z,99075.50
2022-10-13T11:29:47.038Z,99079.09
2022-10-13T11:32:25.941Z,99064.72
2022-10-13T11:35:04.710Z,99063.72
2022-10-13T11:38:05.974Z,99051.38
2022-10-13T11:40:36.118Z,99034.53
2022-10-13T11:43:35.934Z,99049.38
2022-10-13T11:46:49.526Z,99040.22
2022-10-13T11:49:55.481Z,99044.94
2022-10-13T11:52:45.270Z,99028.88
2022-10-13T11:55:47.788Z,99014.59
2022-10-13T11:58:43.821Z,99025.38
2022-10-13T12:01:15.870Z,99018.13
2022-10-13T12:03:45.810Z,99020.59
2022-10-13T12:06:35.602Z,99013.84
2022-10-13T12:09:14.374Z,99007.31
2022-10-13T12:11:41.126Z,99011.97
2022-10-13T12:14:23.887Z,99001.53
2022-10-13T12:16:59.523Z,99016.44
2022-10-13T12:19:30.626Z,99015.66
2022-10-13T12:22:01.254Z,99013.66
2022-10-13T12:24:30.382Z,99014.41
2022-10-13T12:26:59.197Z,99011.25
2022-10-13T12:29:31.074Z,99005.44
2022-10-13T12:32:00.186Z,99004.00
2022-10-13T12:34:33.122Z,99006.03
2022-10-13T12:37:14.118Z,99003.59
2022-10-13T12:39:41.382Z,99000.84
2022-10-13T12:42:11.030Z,98998.97
2022-10-13T12:44:37.927Z,98999.28
2022-10-13T12:47:04.582Z,99000.59
2022-10-13T12:49:34.608Z,98987.69
2022-10-13T12:52:15.447Z,99003.34
2022-10-13T12:54:55.494Z,98993.41
2022-10-13T12:57:35.039Z,98992.56
2022-10-13T13:00:22.149Z,98991.28
2022-10-13T13:03:01.807Z,98991.41
2022-10-13T13:05:45.742Z,98979.94
2022-10-13T13:08:30.116Z,98981.84
2022-10-13T13:11:04.615Z,98976.63
2022-10-13T13:13:31.398Z,98969.28
2022-10-13T13:16:21.378Z,98969.28
2022-10-13T13:18:50.173Z,98970.78
2022-10-13T13:21:19.245Z,98981.25
2022-10-13T13:23:52.711Z,98982.22
2022-10-13T13:26:23.272Z,98983.09
2022-10-13T13:28:55.018Z,98973.03
2022-10-13T13:31:24.740Z,98974.03
2022-10-13T13:33:51.551Z,98978.75
2022-10-13T13:36:26.003Z,98978.72
2022-10-13T13:38:54.030Z,98982.34
2022-10-13T13:41:21.810Z,98974.75
2022-10-13T13:43:49.288Z,98973.66
2022-10-13T13:46:19.825Z,98977.94
2022-10-13T13:48:46.713Z,98975.25
2022-10-13T13:51:14.020Z,98976.13
2022-10-13T13:53:40.888Z,98962.78
2022-10-13T13:56:13.840Z,98963.66
2022-10-13T13:58:40.432Z,98954.34
2022-10-13T14:01:07.351Z,98958.31
2022-10-13T14:03:33.918Z,98956.06
2022-10-13T14:06:00.652Z,98952.69
2022-10-13T14:08:34.284Z,98952.91
2022-10-13T14:11:01.197Z,98956.13
2022-10-13T14:13:27.898Z,98954.41
2022-10-13T14:15:58.860Z,98963.50
2022-10-13T14:18:26.180Z,98958.28
2022-10-13T14:20:52.814Z,98961.78
2022-10-13T14:23:19.632Z,98959.41
2022-10-13T14:25:46.277Z,98947.78
2022-10-13T14:28:17.909Z,98957.78
2022-10-13T14:30:44.958Z,98952.22
2022-10-13T14:33:11.540Z,98949.38
2022-10-13T14:35:41.680Z,98946.06
2022-10-13T14:38:08.230Z,98942.66
2022-10-13T14:40:34.805Z,98936.47
2022-10-13T14:43:01.437Z,98934.50
2022-10-13T14:45:27.991Z,98942.91
2022-10-13T14:47:54.559Z,98934.47
2022-10-13T14:50:21.157Z,98924.41
2022-10-13T14:52:47.714Z,98928.13
2022-10-13T14:55:14.576Z,98928.78
2022-10-13T14:57:41.217Z,98928.03
2022-10-13T15:00:10.436Z,98928.59
2022-10-13T15:02:37.032Z,98936.69
2022-10-13T15:05:04.084Z,98936.09
2022-10-13T15:07:30.720Z,98939.63
2022-10-13T15:10:05.891Z,98942.59
2022-10-13T15:12:33.524Z,98953.06
2022-10-13T15:15:00.097Z,98946.88
2022-10-13T15:17:27.809Z,98945.13
2022-10-13T15:19:54.431Z,98939.88
2022-10-13T15:22:21.219Z,98932.75
2022-10-13T15:24:48.041Z,98934.75
2022-10-13T15:27:14.625Z,98935.59
2022-10-13T15:29:41.340Z,98933.00
2022-10-13T15:32:17.550Z,98928.84
2022-10-13T15:34:49.865Z,98935.66
2022-10-13T15:37:16.546Z,98930.94
2022-10-13T15:39:43.331Z,98933.66
2022-10-13T15:42:11.527Z,98927.97
2022-10-13T15:45:04.914Z,98931.44
2022-10-13T15:47:24.997Z,98931.94
2022-10-13T15:49:51.585Z,98933.28
2022-10-13T15:52:18.522Z,98931.25
2022-10-13T15:54:45.298Z,98928.91
2022-10-13T15:57:11.896Z,98934.75
2022-10-13T15:59:38.511Z,98938.06
2022-10-13T16:02:06.654Z,98936.22
2022-10-13T16:04:37.315Z,98925.44
2022-10-13T16:07:04.929Z,98932.16
2022-10-13T16:09:31.682Z,98936.22
2022-10-13T16:11:58.294Z,98923.66
2022-10-13T16:14:24.940Z,98916.66
2022-10-13T16:16:51.577Z,98925.50
2022-10-13T16:19:18.152Z,98915.69
2022-10-13T16:22:09.561Z,98916.38
2022-10-13T16:24:36.230Z,98923.03
2022-10-13T16:27:02.910Z,98926.75
2022-10-13T16:29:29.714Z,98917.22
2022-10-13T16:31:56.286Z,98928.38
2022-10-13T16:34:23.245Z,98932.31
2022-10-13T16:36:50.425Z,98928.91
2022-10-13T16:39:17.057Z,98928.78
2022-10-13T16:41:43.690Z,98928.50
2022-10-13T16:44:10.517Z,98929.75
2022-10-13T16:46:37.235Z,98930.94
2022-10-13T16:49:04.034Z,98921.84
2022-10-13T16:51:30.689Z,98925.91
2022-10-13T16:54:03.876Z,98925.06
2022-10-13T16:56:32.113Z,98930.66
2022-10-13T16:59:02.730Z,98934.69
2022-10-13T17:01:31.097Z,98932.66
2022-10-13T17:03:58.169Z,98930.72
2022-10-13T17:06:28.004Z,98935.78
2022-10-13T17:08:58.437Z,98939.53
2022-10-13T17:11:30.305Z,98940.56
2022-10-13T17:13:59.183Z,98941.34
2022-10-13T17:16:26.943Z,98946.47
2022-10-13T17:18:54.590Z,98937.78
2022-10-13T17:21:22.018Z,98934.31
2022-10-13T17:23:49.110Z,98942.81
2022-10-13T17:26:17.811Z,98946.75
2022-10-13T17:28:45.211Z,98945.91
2022-10-13T17:31:16.700Z,98939.28
2022-10-13T17:33:44.063Z,98942.34
2022-10-13T17:36:27.523Z,98943.53
2022-10-13T17:38:56.483Z,98944.75
2022-10-13T17:41:24.389Z,98943.53
2022-10-13T17:43:52.051Z,98945.19
2022-10-13T17:46:38.462Z,98947.72
2022-10-13T17:49:10.059Z,98943.09
2022-10-13T17:51:36.820Z,98943.69
2022-10-13T17:54:04.379Z,98932.78
2022-10-13T17:56:31.484Z,98942.22
2022-10-13T17:59:00.777Z,98939.81
2022-10-13T18:01:33.880Z,98936.97
2022-10-13T18:04:04.915Z,98930.97
2022-10-13T18:06:40.370Z,98937.63
2022-10-13T18:09:18.112Z,98929.31
2022-10-13T18:11:50.250Z,98934.25
2022-10-13T18:14:23.322Z,98924.41
2022-10-13T18:16:51.901Z,98921.88
2022-10-13T18:19:19.152Z,98925.81
2022-10-13T18:21:45.821Z,98928.94
2022-10-13T18:24:12.667Z,98928.66
2022-10-13T18:26:39.896Z,98928.22
2022-10-13T18:29:08.567Z,98934.94
2022-10-13T18:31:38.403Z,98933.75
2022-10-13T18:34:08.912Z,98933.00
2022-10-13T18:36:48.145Z,98932.25
2022-10-13T18:39:27.584Z,98930.75
2022-10-13T18:42:01.348Z,98934.97
2022-10-13T18:44:28.391Z,98925.66
2022-10-13T18:46:56.403Z,98934.63
2022-10-13T18:49:30.812Z,98935.69
2022-10-13T18:51:59.102Z,98935.41
2022-10-13T18:54:27.053Z,98934.78
2022-10-13T18:56:54.057Z,98929.84
2022-10-13T18:59:20.885Z,98935.09
2022-10-13T19:01:47.665Z,98928.06
2022-10-13T19:04:16.085Z,98928.66
2022-10-13T19:06:44.267Z,98922.22
2022-10-13T19:09:14.082Z,98917.56
2022-10-13T19:11:41.189Z,98921.75
2022-10-13T19:14:11.988Z,98921.31
2022-10-13T19:16:41.845Z,98921.50
2022-10-13T19:19:09.023Z,98927.47
2022-10-13T19:21:38.686Z,98929.41
2022-10-13T19:24:07.065Z,98928.53
2022-10-13T19:26:35.504Z,98926.72
2022-10-13T19:29:10.237Z,98924.03
2022-10-13T19:31:39.543Z,98925.53
2022-10-13T19:34:06.249Z,98929.41
2022-10-13T19:36:41.016Z,98932.13
2022-10-13T19:39:15.448Z,98926.44
2022-10-13T19:41:43.974Z,98926.28
2022-10-13T19:44:10.853Z,98924.91
2022-10-13T19:46:38.032Z,98922.69
2022-10-13T19:49:05.332Z,98930.59
2022-10-13T19:51:33.950Z,98925.81
2022-10-13T19:54:01.401Z,98927.31
2022-10-13T19:56:33.970Z,98923.59
2022-10-13T19:59:04.133Z,98917.28
2022-10-13T20:01:32.040Z,98915.03
2022-10-13T20:04:09.023Z,98901.56
2022-10-13T20:06:36.379Z,98919.09
2022-10-13T20:09:04.421Z,98923.41
2022-10-13T20:11:31.090Z,98917.56
2022-10-13T20:13:57.729Z,98924.47
2022-10-13T20:16:25.175Z,98921.31
2022-10-13T20:18:55.112Z,98918.16
2022-10-13T20:21:22.392Z,98918.25
2022-10-13T20:23:52.928Z,98927.56
2022-10-13T20:26:20.761Z,98926.53
2022-10-13T20:28:49.007Z,98930.75
2022-10-13T20:31:18.939Z,98934.94
2022-10-13T20:33:46.888Z,98924.91
2022-10-13T20:36:16.955Z,98919.94
2022-10-13T20:38:43.606Z,98921.13
2022-10-13T20:41:29.295Z,98926.25
2022-10-13T20:43:59.651Z,98918.28
2022-10-13T20:46:26.702Z,98922.50
2022-10-13T20:49:11.748Z,98916.06
2022-10-13T20:51:39.584Z,98918.03
2022-10-13T20:54:06.299Z,98916.97
2022-10-13T20:56:33.402Z,98922.66
2022-10-13T20:59:06.101Z,98922.97
2022-10-13T21:01:35.248Z,98921.44
2022-10-13T21:04:01.843Z,98924.59
2022-10-13T21:06:28.508Z,98925.22
2022-10-13T21:08:55.216Z,98919.38
2022-10-13T21:11:23.379Z,98926.56
2022-10-13T21:13:51.176Z,98920.00
2022-10-13T21:16:21.696Z,98923.25
2022-10-13T21:18:50.667Z,98914.59
2022-10-13T21:21:20.768Z,98924.47
2022-10-13T21:23:59.979Z,98920.28
2022-10-13T21:26:28.838Z,98922.81
2022-10-13T21:28:55.937Z,98925.53
2022-10-13T21:31:23.847Z,98919.38
2022-10-13T21:33:51.596Z,98928.22
2022-10-13T21:36:22.401Z,98922.81
2022-10-13T21:38:56.409Z,98921.31
2022-10-13T21:41:24.230Z,98915.50
2022-10-13T21:43:51.778Z,98921.19
2022-10-13T21:46:22.169Z,98922.22
2022-10-13T21:48:49.342Z,98919.97
2022-10-13T21:51:29.279Z,98920.28
2022-10-13T21:54:02.223Z,98926.09
2022-10-13T21:56:34.081Z,98918.47
2022-10-13T21:59:01.010Z,98925.81
2022-10-13T22:01:28.625Z,98926.25
2022-10-13T22:03:59.084Z,98926.00
2022-10-13T22:06:27.094Z,98933.59
2022-10-13T22:08:56.772Z,98928.94
2022-10-13T22:11:27.284Z,98931.81
2022-10-13T22:13:56.796Z,98934.66
2022-10-13T22:16:31.011Z,98934.53
2022-10-13T22:18:58.167Z,98936.16
2022-10-13T22:21:30.231Z,98929.72
2022-10-13T22:24:00.318Z,98931.94
2022-10-13T22:26:31.315Z,98928.63
2022-10-13T22:28:59.955Z,98927.69
2022-10-13T22:31:27.301Z,98926.03
2022-10-13T22:33:54.432Z,98933.09
2022-10-13T22:36:24.534Z,98925.66
2022-10-13T22:38:55.097Z,98920.41
2022-10-13T22:41:22.212Z,98910.63
2022-10-13T22:43:56.925Z,98913.03
2022-10-13T22:46:33.906Z,98910.38
2022-10-13T22:49:02.101Z,98898.53
2022-10-13T22:51:31.200Z,98907.06
2022-10-13T22:53:58.071Z,98906.31
2022-10-13T22:56:31.636Z,98897.94
2022-10-13T22:59:07.871Z,98906.31
2022-10-13T23:01:35.300Z,98908.25
2022-10-13T23:04:02.603Z,98903.94
2022-10-13T23:06:32.600Z,98903.47
2022-10-13T23:09:09.324Z,98900.47
2022-10-13T23:11:36.018Z,98906.03
2022-10-13T23:14:03.209Z,98900.03
2022-10-13T23:16:30.800Z,98900.03
2022-10-13T23:18:57.473Z,98910.06
2022-10-13T23:21:28.306Z,98903.50
2022-10-13T23:23:57.968Z,98903.03
2022-10-13T23:26:25.131Z,98900.47
2022-10-13T23:28:51.840Z,98903.19
2022-10-13T23:31:18.580Z,98902.88
2022-10-13T23:33:45.604Z,98902.59
2022-10-13T23:36:20.093Z,98904.09
2022-10-13T23:38:46.732Z,98902.75
2022-10-13T23:41:16.040Z,98911.13
2022-10-13T23:43:43.670Z,98911.88
2022-10-13T23:46:10.885Z,98909.81
2022-10-13T23:48:38.212Z,98910.38
2022-10-13T23:51:20.376Z,98903.06
2022-10-13T23:53:47.148Z,98905.00
2022-10-13T23:56:14.088Z,98900.50
2022-10-13T23:58:42.861Z,98899.44
